Terminal Aerodrome Forecast
Issued by NWS Wichita, KS

Home | Current Version | Previous Version | Text Only | Print | Product List | Glossary On
Versions: 1 2 3 4 5 6 7 8 9 10 11 12 13 14 15 16 17 18 19 20
000
FTUS43 KICT 251423 AAC
TAFICT
TAF AMD
KICT 251423Z 2514/2612 33008KT P6SM SCT020 BKN080
      TEMPO 2514/2516 BKN009
     FM251600 05006KT P6SM SCT040 BKN080
     FM252200 12007KT P6SM VCTS BKN035CB
      TEMPO 2600/2604 1SM +TSRA BKN020CB
     FM260400 09006KT P6SM VCTS BKN035CB=

USA.gov is the U.S. government's official web portal to all federal, state and local government web resources and services.